createdAt,value
2023-03-27T00:01:23.326Z,2.80
2023-03-27T00:03:51.739Z,2.70
2023-03-27T00:06:20.094Z,2.70
2023-03-27T00:08:49.364Z,2.70
2023-03-27T00:11:16.932Z,2.80
2023-03-27T00:13:50.638Z,2.80
2023-03-27T00:16:20.261Z,2.80
2023-03-27T00:18:47.408Z,2.90
2023-03-27T00:21:14.709Z,2.90
2023-03-27T00:23:42.412Z,3.00
2023-03-27T00:26:09.686Z,3.00
2023-03-27T00:28:36.409Z,3.00
2023-03-27T00:31:03.761Z,3.00
2023-03-27T00:33:30.672Z,3.00
2023-03-27T00:35:57.550Z,2.90
2023-03-27T00:38:24.537Z,2.80
2023-03-27T00:40:55.283Z,2.70
2023-03-27T00:43:27.636Z,2.60
2023-03-27T00:46:08.202Z,2.70
2023-03-27T00:48:37.292Z,2.60
2023-03-27T00:51:05.832Z,2.60
2023-03-27T00:53:33.356Z,2.50
2023-03-27T00:56:04.018Z,2.50
2023-03-27T00:58:39.598Z,2.50
2023-03-27T01:01:09.285Z,2.50
2023-03-27T01:03:36.877Z,2.50
2023-03-27T01:06:04.396Z,2.50
2023-03-27T01:08:34.685Z,2.60
2023-03-27T01:11:22.598Z,2.50
2023-03-27T01:14:15.817Z,2.50
2023-03-27T01:17:10.257Z,2.50
2023-03-27T01:19:58.032Z,2.40
2023-03-27T01:22:43.975Z,2.40
2023-03-27T01:25:30.029Z,2.40
2023-03-27T01:28:27.611Z,2.40
2023-03-27T01:31:12.607Z,2.30
2023-03-27T01:34:23.749Z,2.30
2023-03-27T01:37:28.517Z,2.30
2023-03-27T01:40:05.153Z,2.30
2023-03-27T01:42:40.996Z,2.20
2023-03-27T01:45:15.459Z,2.20
2023-03-27T01:47:57.974Z,2.20
2023-03-27T01:50:45.086Z,2.20
2023-03-27T01:53:33.086Z,2.20
2023-03-27T01:56:18.494Z,2.20
2023-03-27T01:58:49.400Z,2.20
2023-03-27T02:01:22.398Z,2.20
2023-03-27T02:03:53.920Z,2.10
2023-03-27T02:06:28.307Z,2.10
2023-03-27T02:09:10.514Z,2.10
2023-03-27T02:11:49.854Z,2.20
2023-03-27T02:14:23.219Z,2.10
2023-03-27T02:16:55.106Z,2.20
2023-03-27T02:19:28.299Z,2.20
2023-03-27T02:21:55.123Z,2.30
2023-03-27T02:24:22.560Z,2.30
2023-03-27T02:26:53.988Z,2.30
2023-03-27T02:30:02.994Z,2.30
2023-03-27T02:33:00.323Z,2.30
2023-03-27T02:36:13.932Z,2.30
2023-03-27T02:38:58.699Z,2.30
2023-03-27T02:41:38.608Z,2.30
2023-03-27T02:44:12.264Z,2.30
2023-03-27T02:46:51.362Z,2.20
2023-03-27T02:49:25.475Z,2.20
2023-03-27T02:51:59.201Z,2.20
2023-03-27T02:54:32.512Z,2.30
2023-03-27T02:57:06.765Z,2.20
2023-03-27T02:59:39.123Z,2.10
2023-03-27T03:02:10.570Z,2.10
2023-03-27T03:04:46.371Z,2.10
2023-03-27T03:07:14.377Z,2.10
2023-03-27T03:09:42.666Z,2.10
2023-03-27T03:12:09.509Z,2.10
2023-03-27T03:14:40.139Z,2.20
2023-03-27T03:17:06.807Z,2.10
2023-03-27T03:19:33.465Z,2.10
2023-03-27T03:22:01.164Z,2.10
2023-03-27T03:24:29.725Z,2.10
2023-03-27T03:26:56.399Z,2.70
2023-03-27T03:29:23.059Z,1.90
2023-03-27T03:31:49.667Z,1.80
2023-03-27T03:34:18.657Z,1.80
2023-03-27T03:36:50.165Z,1.80
2023-03-27T03:39:17.522Z,1.80
2023-03-27T03:41:44.155Z,1.70
2023-03-27T03:44:10.984Z,1.70
2023-03-27T03:46:37.823Z,1.60
2023-03-27T03:49:07.223Z,1.60
2023-03-27T03:51:36.459Z,1.50
2023-03-27T03:54:06.101Z,1.50
2023-03-27T03:56:34.409Z,1.60
2023-03-27T03:59:01.511Z,1.60
2023-03-27T04:01:29.183Z,1.70
2023-03-27T04:03:56.383Z,1.60
2023-03-27T04:06:25.528Z,1.70
2023-03-27T04:08:53.304Z,1.70
2023-03-27T04:11:20.232Z,1.70
2023-03-27T04:13:47.203Z,1.60
2023-03-27T04:16:13.983Z,1.70
2023-03-27T04:18:41.435Z,1.70
2023-03-27T04:21:14.875Z,1.70
2023-03-27T04:23:48.237Z,1.70
2023-03-27T04:26:16.255Z,1.70
2023-03-27T04:28:43.182Z,1.60
2023-03-27T04:31:11.076Z,1.70
2023-03-27T04:33:39.796Z,1.60
2023-03-27T04:36:08.270Z,1.60
2023-03-27T04:38:36.755Z,1.60
2023-03-27T04:41:04.717Z,1.60
2023-03-27T04:43:31.740Z,1.70
2023-03-27T04:45:58.395Z,1.70
2023-03-27T04:48:25.034Z,1.60
2023-03-27T04:50:51.629Z,1.60
2023-03-27T04:53:20.531Z,1.60
2023-03-27T04:55:51.141Z,1.60
2023-03-27T04:58:19.120Z,1.60
2023-03-27T05:00:50.407Z,1.60
2023-03-27T05:03:20.973Z,1.60
2023-03-27T05:05:49.870Z,1.60
2023-03-27T05:08:17.559Z,1.60
2023-03-27T05:10:46.484Z,1.50
2023-03-27T05:13:13.387Z,1.50
2023-03-27T05:15:40.437Z,1.60
2023-03-27T05:18:08.839Z,1.60
2023-03-27T05:20:35.848Z,1.60
2023-03-27T05:23:02.929Z,1.50
2023-03-27T05:25:33.088Z,1.60
2023-03-27T05:28:00.638Z,1.60
2023-03-27T05:30:29.519Z,1.60
2023-03-27T05:32:59.234Z,1.60
2023-03-27T05:35:28.248Z,1.60
2023-03-27T05:37:57.313Z,1.70
2023-03-27T05:40:25.775Z,1.60
2023-03-27T05:42:53.763Z,1.60
2023-03-27T05:45:21.622Z,1.60
2023-03-27T05:47:51.938Z,1.60
2023-03-27T05:50:24.027Z,1.70
2023-03-27T05:53:02.595Z,1.80
2023-03-27T05:55:30.059Z,1.80
2023-03-27T05:57:56.802Z,1.80
2023-03-27T06:00:27.573Z,1.80
2023-03-27T06:02:56.457Z,1.80
2023-03-27T06:05:23.805Z,1.90
2023-03-27T06:07:51.467Z,1.90
2023-03-27T06:10:20.402Z,2.00
2023-03-27T06:12:48.987Z,2.10
2023-03-27T06:15:15.976Z,2.10
2023-03-27T06:17:46.763Z,2.10
2023-03-27T06:20:15.680Z,2.10
2023-03-27T06:22:50.775Z,2.20
2023-03-27T06:25:20.215Z,2.30
2023-03-27T06:27:50.643Z,2.30
2023-03-27T06:30:19.740Z,2.40
2023-03-27T06:32:51.554Z,2.40
2023-03-27T06:35:19.822Z,2.50
2023-03-27T06:37:50.698Z,2.60
2023-03-27T06:40:24.020Z,2.70
2023-03-27T06:43:02.583Z,2.60
2023-03-27T06:45:32.335Z,2.50
2023-03-27T06:48:15.517Z,2.50
2023-03-27T06:50:49.289Z,2.40
2023-03-27T06:55:48.033Z,2.40
2023-03-27T06:58:16.654Z,2.40
2023-03-27T07:00:45.682Z,2.50
2023-03-27T07:03:12.784Z,2.60
2023-03-27T07:05:41.065Z,2.70
2023-03-27T07:08:21.669Z,2.70
2023-03-27T07:10:59.887Z,2.60
2023-03-27T07:13:36.788Z,2.80
2023-03-27T07:16:03.832Z,2.90
2023-03-27T07:18:32.302Z,3.10
2023-03-27T07:20:59.379Z,3.10
2023-03-27T07:23:28.500Z,3.10
2023-03-27T07:25:59.110Z,3.20
2023-03-27T07:28:27.298Z,3.30
2023-03-27T07:30:54.144Z,3.40
2023-03-27T07:33:20.792Z,3.50
2023-03-27T07:35:50.922Z,3.50
2023-03-27T07:38:18.843Z,3.50
2023-03-27T07:40:48.439Z,3.50
2023-03-27T07:43:16.113Z,3.60
2023-03-27T07:45:44.428Z,3.60
2023-03-27T07:48:20.692Z,3.60
2023-03-27T07:50:47.819Z,3.50
2023-03-27T07:53:34.501Z,3.50
2023-03-27T07:56:01.306Z,3.60
2023-03-27T07:58:28.247Z,3.80
2023-03-27T08:01:02.578Z,4.00
2023-03-27T08:03:32.600Z,4.00
2023-03-27T08:06:00.861Z,4.10
2023-03-27T08:08:28.445Z,4.10
2023-03-27T08:10:56.896Z,4.20
2023-03-27T08:13:23.900Z,4.50
2023-03-27T08:15:50.674Z,4.40
2023-03-27T08:18:17.398Z,4.50
2023-03-27T08:20:45.660Z,4.50
2023-03-27T08:23:13.863Z,4.70
2023-03-27T08:25:44.770Z,4.70
2023-03-27T08:28:11.739Z,4.60
2023-03-27T08:30:38.544Z,4.50
2023-03-27T08:33:05.247Z,4.60
2023-03-27T08:35:32.619Z,4.60
2023-03-27T08:38:00.010Z,4.60
2023-03-27T08:40:33.598Z,4.60
2023-03-27T08:43:13.892Z,4.60
2023-03-27T08:46:02.159Z,4.70
2023-03-27T08:48:38.061Z,4.80
2023-03-27T08:51:20.031Z,4.90
2023-03-27T08:53:54.645Z,4.90
2023-03-27T08:56:22.065Z,4.90
2023-03-27T08:58:48.877Z,5.20
2023-03-27T09:01:29.559Z,5.40
2023-03-27T09:04:11.331Z,5.40
2023-03-27T09:06:55.845Z,5.20
2023-03-27T09:10:11.307Z,5.50
2023-03-27T09:13:12.064Z,5.40
2023-03-27T09:15:57.135Z,5.30
2023-03-27T09:18:36.685Z,5.30
2023-03-27T09:21:17.972Z,5.40
2023-03-27T09:23:46.974Z,5.60
2023-03-27T09:26:35.451Z,5.50
2023-03-27T09:29:05.204Z,5.50
2023-03-27T09:31:45.475Z,5.50
2023-03-27T09:34:15.813Z,5.50
2023-03-27T09:36:43.074Z,5.60
2023-03-27T09:39:21.910Z,5.50
2023-03-27T09:41:57.146Z,5.60
2023-03-27T09:44:35.644Z,5.50
2023-03-27T09:47:12.008Z,5.50
2023-03-27T09:49:44.960Z,5.50
2023-03-27T09:52:34.436Z,5.60
2023-03-27T09:55:03.491Z,5.80
2023-03-27T09:57:36.110Z,6.10
2023-03-27T10:00:33.844Z,6.30
2023-03-27T10:03:07.908Z,6.40
2023-03-27T10:05:37.354Z,6.10
2023-03-27T10:08:26.746Z,6.10
2023-03-27T10:11:00.926Z,6.10
2023-03-27T10:13:29.661Z,6.00
2023-03-27T10:16:02.846Z,5.80
2023-03-27T10:18:31.684Z,5.80
2023-03-27T10:21:01.856Z,5.80
2023-03-27T10:23:40.816Z,5.80
2023-03-27T10:26:11.999Z,5.50
2023-03-27T10:28:46.566Z,4.60
2023-03-27T10:31:33.093Z,3.50
2023-03-27T10:34:06.366Z,2.60
2023-03-27T10:36:38.245Z,2.50
2023-03-27T10:39:15.722Z,2.60
2023-03-27T10:41:42.722Z,2.90
2023-03-27T10:44:20.997Z,3.80
2023-03-27T10:46:48.032Z,3.00
2023-03-27T10:49:30.509Z,3.10
2023-03-27T10:52:16.527Z,3.20
2023-03-27T10:55:02.058Z,3.40
2023-03-27T10:57:30.923Z,3.50
2023-03-27T11:00:13.850Z,3.70
2023-03-27T11:03:07.437Z,3.80
2023-03-27T11:05:39.066Z,3.90
2023-03-27T11:08:32.573Z,4.00
2023-03-27T11:11:08.670Z,4.20
2023-03-27T11:13:41.245Z,4.20
2023-03-27T11:16:33.906Z,4.30
2023-03-27T11:19:09.812Z,4.40
2023-03-27T11:21:36.990Z,4.50
2023-03-27T11:24:11.049Z,4.70
2023-03-27T11:26:55.238Z,4.70
2023-03-27T11:29:31.543Z,5.10
2023-03-27T11:32:13.251Z,5.10
2023-03-27T11:34:52.995Z,5.00
2023-03-27T11:37:46.634Z,4.90
2023-03-27T11:40:39.306Z,5.00
2023-03-27T11:43:09.357Z,4.30
2023-03-27T11:45:56.007Z,3.10
2023-03-27T11:48:36.099Z,2.80
2023-03-27T11:51:28.773Z,2.80
2023-03-27T11:54:11.565Z,2.80
2023-03-27T11:56:54.892Z,2.90
2023-03-27T12:00:07.142Z,3.10
2023-03-27T12:03:06.819Z,3.30
2023-03-27T12:05:59.839Z,3.50
2023-03-27T12:09:19.469Z,3.80
2023-03-27T12:12:01.738Z,3.80
2023-03-27T12:14:53.530Z,4.10
2023-03-27T12:17:35.405Z,4.30
2023-03-27T12:20:58.963Z,4.60
2023-03-27T12:24:13.498Z,4.80
2023-03-27T12:27:08.358Z,5.10
2023-03-27T12:29:42.477Z,5.20
2023-03-27T12:32:49.793Z,5.30
2023-03-27T12:35:24.003Z,5.30
2023-03-27T12:38:09.494Z,5.30
2023-03-27T12:40:48.207Z,5.30
2023-03-27T12:43:26.063Z,5.40
2023-03-27T12:46:29.333Z,5.50
2023-03-27T12:49:00.424Z,5.40
2023-03-27T12:55:17.550Z,5.60
2023-03-27T12:57:50.365Z,5.40
2023-03-27T13:00:30.474Z,5.40
2023-03-27T13:03:23.656Z,5.50
2023-03-27T13:06:25.103Z,5.40
2023-03-27T13:09:42.252Z,5.20
2023-03-27T13:12:36.888Z,4.80
2023-03-27T13:15:43.123Z,4.90
2023-03-27T13:18:46.199Z,5.20
2023-03-27T13:21:38.611Z,5.20
2023-03-27T13:24:33.634Z,5.40
2023-03-27T13:27:23.298Z,5.70
2023-03-27T13:30:02.802Z,5.90
2023-03-27T13:33:16.505Z,5.90
2023-03-27T13:36:16.556Z,5.90
2023-03-27T13:39:00.745Z,6.10
2023-03-27T13:41:59.882Z,6.20
2023-03-27T13:47:33.716Z,6.50
2023-03-27T13:50:14.274Z,6.50
2023-03-27T13:53:15.283Z,6.40
2023-03-27T13:56:12.758Z,6.10
2023-03-27T13:58:51.408Z,5.90
2023-03-27T14:02:05.832Z,6.00
2023-03-27T14:05:02.171Z,6.00
2023-03-27T14:10:39.903Z,6.00
2023-03-27T14:13:21.134Z,5.70
2023-03-27T14:16:13.562Z,5.80
2023-03-27T14:19:15.978Z,5.80
2023-03-27T14:22:33.689Z,5.70
2023-03-27T14:25:15.998Z,5.60
2023-03-27T14:27:49.527Z,5.50
2023-03-27T14:33:25.118Z,5.40
2023-03-27T14:36:07.826Z,5.00
2023-03-27T14:38:37.371Z,5.10
2023-03-27T14:41:18.977Z,5.30
2023-03-27T14:43:51.935Z,5.50
2023-03-27T14:46:26.197Z,5.70
2023-03-27T14:48:58.692Z,5.90
2023-03-27T14:51:37.169Z,6.00
2023-03-27T14:54:09.574Z,6.10
2023-03-27T14:56:49.162Z,6.10
2023-03-27T14:59:30.480Z,6.10
2023-03-27T15:02:07.950Z,6.20
2023-03-27T15:04:44.000Z,6.20
2023-03-27T15:07:24.292Z,6.30
2023-03-27T15:10:07.124Z,6.30
2023-03-27T15:12:35.658Z,6.10
2023-03-27T15:15:02.867Z,6.20
2023-03-27T15:17:32.115Z,6.20
2023-03-27T15:20:16.356Z,6.40
2023-03-27T15:22:55.753Z,6.30
2023-03-27T15:25:34.578Z,6.10
2023-03-27T15:28:07.744Z,6.00
2023-03-27T15:30:40.260Z,6.00
2023-03-27T15:33:12.907Z,6.20
2023-03-27T15:35:45.686Z,6.00
2023-03-27T15:38:16.550Z,5.90
2023-03-27T15:40:46.373Z,5.80
2023-03-27T15:43:13.002Z,5.90
2023-03-27T15:45:42.470Z,5.90
2023-03-27T15:48:19.994Z,5.90
2023-03-27T15:51:26.830Z,6.10
2023-03-27T15:53:55.838Z,6.00
2023-03-27T15:56:43.121Z,6.00
2023-03-27T15:59:12.962Z,6.00
2023-03-27T16:01:42.775Z,6.20
2023-03-27T16:04:16.629Z,6.50
2023-03-27T16:07:08.991Z,6.70
2023-03-27T16:09:50.688Z,6.80
2023-03-27T16:12:19.289Z,6.70
2023-03-27T16:14:48.610Z,6.80
2023-03-27T16:17:17.081Z,6.80
2023-03-27T16:20:02.260Z,6.80
2023-03-27T16:22:31.238Z,6.40
2023-03-27T16:24:59.245Z,6.30
2023-03-27T16:27:31.830Z,6.20
2023-03-27T16:29:58.468Z,6.20
2023-03-27T16:32:26.834Z,6.30
2023-03-27T16:34:53.551Z,6.20
2023-03-27T16:37:25.568Z,6.10
2023-03-27T16:39:54.511Z,6.00
2023-03-27T16:42:25.842Z,5.90
2023-03-27T16:44:55.524Z,5.60
2023-03-27T16:47:23.338Z,4.90
2023-03-27T16:50:03.658Z,4.50
2023-03-27T16:52:36.754Z,4.40
2023-03-27T16:55:06.979Z,4.30
2023-03-27T16:57:34.617Z,4.20
2023-03-27T17:00:01.311Z,4.20
2023-03-27T17:02:28.679Z,4.20
2023-03-27T17:04:55.925Z,4.30
2023-03-27T17:07:24.829Z,4.30
2023-03-27T17:09:51.764Z,4.20
2023-03-27T17:12:18.545Z,4.20
2023-03-27T17:14:45.298Z,4.30
2023-03-27T17:17:11.909Z,4.20
2023-03-27T17:19:39.768Z,4.20
2023-03-27T17:22:10.995Z,4.10
2023-03-27T17:24:53.312Z,4.20
2023-03-27T17:27:23.715Z,4.20
2023-03-27T17:29:51.288Z,4.10
2023-03-27T17:32:17.912Z,4.10
2023-03-27T17:34:44.757Z,4.20
2023-03-27T17:37:12.425Z,4.30
2023-03-27T17:39:39.613Z,4.30
2023-03-27T17:42:06.778Z,4.20
2023-03-27T17:44:33.826Z,4.20
2023-03-27T17:47:01.584Z,4.20
2023-03-27T17:49:29.516Z,4.20
2023-03-27T17:51:56.174Z,4.30
2023-03-27T17:54:22.981Z,4.40
2023-03-27T17:56:49.805Z,4.30
2023-03-27T17:59:16.446Z,4.40
2023-03-27T18:01:45.671Z,4.30
2023-03-27T18:04:17.391Z,4.30
2023-03-27T18:06:44.036Z,4.20
2023-03-27T18:09:10.824Z,4.20
2023-03-27T18:11:41.856Z,4.10
2023-03-27T18:14:08.635Z,4.20
2023-03-27T18:16:39.434Z,4.20
2023-03-27T18:19:06.165Z,4.20
2023-03-27T18:21:33.045Z,4.20
2023-03-27T18:24:00.352Z,4.20
2023-03-27T18:26:30.298Z,4.00
2023-03-27T18:29:00.966Z,4.00
2023-03-27T18:31:27.942Z,4.00
2023-03-27T18:34:37.541Z,4.10
2023-03-27T18:39:58.115Z,4.00
2023-03-27T18:42:25.476Z,3.90
2023-03-27T18:44:52.174Z,3.90
2023-03-27T18:47:18.829Z,3.90
2023-03-27T18:49:46.335Z,4.00
2023-03-27T18:52:14.784Z,3.90
2023-03-27T18:54:53.944Z,5.30
2023-03-27T18:57:31.195Z,3.80
2023-03-27T18:59:59.651Z,3.90
2023-03-27T19:02:29.789Z,3.90
2023-03-27T19:04:56.627Z,3.90
2023-03-27T19:07:23.244Z,3.90
2023-03-27T19:09:50.044Z,3.90
2023-03-27T19:12:16.878Z,3.90
2023-03-27T19:14:43.617Z,3.90
2023-03-27T19:17:14.636Z,3.80
2023-03-27T19:19:42.199Z,3.90
2023-03-27T19:22:12.818Z,4.00
2023-03-27T19:24:46.498Z,4.00
2023-03-27T19:27:23.119Z,4.00
2023-03-27T19:30:01.259Z,4.00
2023-03-27T19:32:29.740Z,4.10
2023-03-27T19:34:56.598Z,4.10
2023-03-27T19:37:25.974Z,4.20
2023-03-27T19:39:57.247Z,4.20
2023-03-27T19:42:23.959Z,4.30
2023-03-27T19:44:50.772Z,4.30
2023-03-27T19:47:22.044Z,4.30
2023-03-27T19:49:48.993Z,3.70
2023-03-27T19:52:20.047Z,3.30
2023-03-27T19:54:49.932Z,3.10
2023-03-27T19:57:22.220Z,2.90
2023-03-27T19:59:48.943Z,2.80
2023-03-27T20:02:21.276Z,2.60
2023-03-27T20:04:49.356Z,2.60
2023-03-27T20:07:19.698Z,2.60
2023-03-27T20:09:46.533Z,2.60
2023-03-27T20:12:14.864Z,2.60
2023-03-27T20:14:41.550Z,2.60
2023-03-27T20:17:18.135Z,2.70
2023-03-27T20:19:58.723Z,2.70
2023-03-27T20:22:26.904Z,2.70
2023-03-27T20:24:56.857Z,2.80
2023-03-27T20:27:25.341Z,2.80
2023-03-27T20:29:52.136Z,2.90
2023-03-27T20:32:19.226Z,2.90
2023-03-27T20:34:48.864Z,2.90
2023-03-27T20:37:19.737Z,2.90
2023-03-27T20:39:50.991Z,2.90
2023-03-27T20:42:18.295Z,2.80
2023-03-27T20:44:46.672Z,2.90
2023-03-27T20:47:15.390Z,3.00
2023-03-27T20:49:42.922Z,3.10
2023-03-27T20:52:11.940Z,3.10
2023-03-27T20:54:39.000Z,3.10
2023-03-27T20:57:06.737Z,3.10
2023-03-27T20:59:33.542Z,3.20
2023-03-27T21:02:01.027Z,2.90
2023-03-27T21:04:29.581Z,2.80
2023-03-27T21:06:57.998Z,2.60
2023-03-27T21:09:26.772Z,2.60
2023-03-27T21:11:55.204Z,2.70
2023-03-27T21:14:22.986Z,2.70
2023-03-27T21:16:49.954Z,2.70
2023-03-27T21:19:17.049Z,2.70
2023-03-27T21:21:43.850Z,2.80
2023-03-27T21:24:11.050Z,2.80
2023-03-27T21:26:42.981Z,2.80
2023-03-27T21:29:10.967Z,2.80
2023-03-27T21:31:41.754Z,2.90
2023-03-27T21:34:08.903Z,2.90
2023-03-27T21:36:35.590Z,2.90
2023-03-27T21:39:02.375Z,2.90
2023-03-27T21:41:29.158Z,2.90
2023-03-27T21:43:55.870Z,3.00
2023-03-27T21:46:22.615Z,3.00
2023-03-27T21:48:50.849Z,3.00
2023-03-27T21:51:18.035Z,3.00
2023-03-27T21:53:45.848Z,3.00
2023-03-27T21:56:13.026Z,3.00
2023-03-27T21:58:39.889Z,3.00
2023-03-27T22:01:07.268Z,3.10
2023-03-27T22:03:33.967Z,3.10
2023-03-27T22:06:11.691Z,3.20
2023-03-27T22:08:41.691Z,3.20
2023-03-27T22:11:10.059Z,3.20
2023-03-27T22:13:37.912Z,3.10
2023-03-27T22:16:13.416Z,3.00
2023-03-27T22:18:41.354Z,3.00
2023-03-27T22:21:21.038Z,2.90
2023-03-27T22:23:51.501Z,2.90
2023-03-27T22:26:20.299Z,2.80
2023-03-27T22:28:47.566Z,2.80
2023-03-27T22:31:15.665Z,2.80
2023-03-27T22:33:42.463Z,2.70
2023-03-27T22:36:11.154Z,2.70
2023-03-27T22:38:38.724Z,2.70
2023-03-27T22:41:06.985Z,2.70
2023-03-27T22:43:34.399Z,2.70
2023-03-27T22:46:06.084Z,2.70
2023-03-27T22:48:33.509Z,2.70
2023-03-27T22:51:00.692Z,2.70
2023-03-27T22:53:27.478Z,2.70
2023-03-27T22:55:57.281Z,2.60
2023-03-27T22:58:25.294Z,2.60
2023-03-27T23:00:53.764Z,2.60
2023-03-27T23:03:21.517Z,2.60
2023-03-27T23:05:49.778Z,2.50
2023-03-27T23:08:19.081Z,2.50
2023-03-27T23:10:46.528Z,2.50
2023-03-27T23:13:13.406Z,2.40
2023-03-27T23:15:40.222Z,2.40
2023-03-27T23:18:07.056Z,2.40
2023-03-27T23:20:33.741Z,2.40
2023-03-27T23:23:00.444Z,2.40
2023-03-27T23:25:27.111Z,2.30
2023-03-27T23:27:53.889Z,2.30
2023-03-27T23:30:20.641Z,2.30
2023-03-27T23:32:47.488Z,2.20
2023-03-27T23:35:14.111Z,2.30
2023-03-27T23:37:40.816Z,2.20
2023-03-27T23:40:08.230Z,2.20
2023-03-27T23:42:34.896Z,2.20
2023-03-27T23:45:01.584Z,2.20
2023-03-27T23:47:28.309Z,2.30
2023-03-27T23:49:55.122Z,2.20
2023-03-27T23:52:21.979Z,2.20
2023-03-27T23:54:48.611Z,2.20
2023-03-27T23:57:15.444Z,2.10
2023-03-27T23:59:42.227Z,2.10
